createdAt,value
2019-03-18T00:10:44.729Z,1.74
2019-03-18T00:32:54.155Z,1.66
2019-03-18T00:43:51.343Z,1.73
2019-03-18T00:54:52.857Z,1.75
2019-03-18T01:00:11.631Z,1.74
2019-03-18T01:22:13.979Z,1.81
2019-03-18T01:57:57.634Z,2.00
2019-03-18T02:27:37.187Z,2.34
2019-03-18T02:32:58.416Z,2.22
2019-03-18T02:49:29.169Z,2.32
2019-03-18T03:00:23.979Z,2.48
2019-03-18T03:17:01.476Z,2.59
2019-03-18T03:22:19.996Z,2.63
2019-03-18T03:27:40.058Z,2.63
2019-03-18T03:32:59.383Z,2.32
2019-03-18T03:38:19.521Z,1.83
2019-03-18T03:43:39.607Z,1.67
2019-03-18T03:48:58.741Z,1.62
2019-03-18T03:54:17.402Z,1.62
2019-03-18T03:59:43.061Z,1.56
2019-03-18T04:05:01.692Z,1.56
2019-03-18T04:10:25.553Z,1.60
2019-03-18T04:15:45.330Z,1.66
2019-03-18T04:21:05.360Z,1.69
2019-03-18T04:26:29.266Z,1.79
2019-03-18T04:31:45.659Z,1.86
2019-03-18T04:37:25.321Z,1.94
2019-03-18T04:42:44.920Z,2.03
2019-03-18T04:48:05.092Z,2.15
2019-03-18T04:53:28.698Z,2.19
2019-03-18T04:58:48.876Z,2.27
2019-03-18T05:04:09.467Z,2.29
2019-03-18T05:14:55.293Z,2.38
2019-03-18T05:20:13.938Z,2.41
2019-03-18T05:25:51.075Z,2.42
2019-03-18T05:31:09.706Z,2.36
2019-03-18T05:36:28.854Z,2.30
2019-03-18T05:41:48.004Z,2.35
2019-03-18T05:47:08.269Z,2.38
2019-03-18T05:52:30.351Z,2.47
2019-03-18T05:57:50.048Z,2.57
2019-03-18T06:08:35.966Z,2.42
2019-03-18T06:13:56.642Z,2.42
2019-03-18T06:19:16.961Z,2.48
2019-03-18T06:24:37.942Z,2.42
2019-03-18T06:29:58.542Z,2.44
2019-03-18T06:35:20.403Z,2.67
2019-03-18T06:40:39.092Z,2.80
2019-03-18T06:45:57.663Z,2.90
2019-03-18T06:51:16.279Z,2.81
2019-03-18T06:56:35.360Z,3.14
2019-03-18T07:02:13.313Z,3.02
2019-03-18T07:07:31.980Z,3.12
2019-03-18T07:12:52.236Z,3.05
2019-03-18T07:18:18.336Z,3.30
2019-03-18T07:23:31.193Z,4.53
2019-03-18T07:28:52.269Z,4.60
2019-03-18T07:34:12.425Z,4.37
2019-03-18T07:56:33.360Z,6.52
2019-03-18T08:13:11.415Z,7.27
2019-03-18T08:54:43.172Z,5.42
2019-03-18T09:00:01.738Z,5.49
2019-03-18T09:10:58.637Z,6.35
2019-03-18T09:39:33.239Z,6.71
2019-03-18T09:44:57.743Z,6.83
2019-03-18T10:07:23.800Z,7.34
2019-03-18T10:18:31.841Z,7.12
2019-03-18T10:59:22.310Z,7.35
2019-03-18T11:04:41.405Z,6.86
2019-03-18T11:32:29.321Z,7.58
2019-03-18T11:49:00.623Z,8.01
2019-03-18T11:54:24.825Z,7.96
2019-03-18T12:10:57.488Z,8.15
2019-03-18T12:16:16.594Z,7.70
2019-03-18T12:38:38.262Z,8.02
2019-03-18T12:49:34.683Z,8.49
2019-03-18T13:00:35.414Z,8.43
2019-03-18T13:05:57.056Z,8.63
2019-03-18T13:16:54.133Z,8.48
2019-03-18T13:22:14.307Z,8.61
2019-03-18T13:27:32.914Z,8.43
2019-03-18T13:32:54.091Z,7.76
2019-03-18T13:38:33.669Z,8.20
2019-03-18T13:43:52.051Z,7.95
2019-03-18T13:49:10.658Z,8.46
2019-03-18T13:54:32.236Z,8.49
2019-03-18T13:59:50.814Z,8.66
2019-03-18T14:05:34.916Z,9.20
2019-03-18T14:16:34.036Z,9.10
2019-03-18T14:27:19.662Z,8.13
2019-03-18T14:32:38.984Z,8.68
2019-03-18T14:37:59.118Z,8.59
2019-03-18T14:43:17.713Z,8.63
2019-03-18T14:48:37.833Z,8.65
2019-03-18T14:54:01.634Z,8.62
2019-03-18T14:59:21.761Z,8.86
2019-03-18T15:04:40.187Z,8.89
2019-03-18T15:10:03.284Z,8.89
2019-03-18T15:15:23.204Z,8.75
2019-03-18T15:20:41.816Z,8.61
2019-03-18T15:26:00.464Z,8.62
2019-03-18T15:31:19.025Z,8.59
2019-03-18T15:36:43.852Z,8.06
2019-03-18T15:42:02.473Z,7.92
2019-03-18T15:47:22.118Z,7.88
2019-03-18T15:52:41.290Z,7.79
2019-03-18T15:58:20.134Z,7.63
2019-03-18T16:03:40.265Z,7.11
2019-03-18T16:09:00.600Z,6.86
2019-03-18T16:14:19.440Z,6.79
2019-03-18T16:19:39.285Z,6.93
2019-03-18T16:24:59.381Z,7.17
2019-03-18T16:30:22.710Z,7.45
2019-03-18T16:35:43.681Z,7.23
2019-03-18T16:41:02.865Z,6.84
2019-03-18T16:46:24.523Z,6.55
2019-03-18T16:51:44.181Z,6.53
2019-03-18T16:57:05.563Z,6.45
2019-03-18T17:02:24.430Z,6.40
2019-03-18T17:07:44.385Z,6.33
2019-03-18T17:13:03.007Z,6.22
2019-03-18T17:18:22.038Z,6.13
2019-03-18T17:23:40.613Z,6.07
2019-03-18T17:29:06.296Z,5.96
2019-03-18T17:34:24.822Z,5.78
2019-03-18T17:39:44.466Z,5.72
2019-03-18T17:45:05.977Z,5.60
2019-03-18T17:50:34.458Z,5.33
2019-03-18T17:55:58.365Z,5.17
2019-03-18T18:01:18.157Z,5.15
2019-03-18T18:06:43.753Z,5.26
2019-03-18T18:12:02.475Z,5.21
2019-03-18T18:17:24.607Z,5.05
2019-03-18T18:28:16.812Z,4.69
2019-03-18T18:33:43.705Z,4.58
2019-03-18T18:39:02.717Z,4.41
2019-03-18T18:49:55.762Z,4.35
2019-03-18T19:11:53.621Z,4.31
2019-03-18T19:24:37.652Z,3.69
2019-03-18T19:35:34.700Z,3.47
2019-03-18T19:40:54.489Z,3.64
2019-03-18T19:46:18.109Z,3.68
2019-03-18T20:02:40.740Z,3.92
2019-03-18T20:36:17.571Z,2.85
2019-03-18T20:41:39.156Z,2.70
2019-03-18T20:46:57.799Z,2.37
2019-03-18T20:52:26.641Z,1.93
2019-03-18T20:57:49.346Z,1.67
2019-03-18T21:08:43.510Z,1.45
2019-03-18T21:19:38.717Z,1.06
2019-03-18T21:25:15.252Z,0.95
2019-03-18T21:31:00.761Z,0.85
2019-03-18T21:36:38.234Z,1.06
2019-03-18T21:53:00.003Z,1.17
2019-03-18T22:03:55.708Z,0.72
2019-03-18T22:14:35.034Z,0.13
2019-03-18T22:19:53.587Z,0.29
2019-03-18T22:25:13.383Z,0.24
2019-03-18T22:36:35.087Z,0.07
2019-03-18T22:41:57.366Z,-0.12
2019-03-18T22:47:16.017Z,-0.26
2019-03-18T22:52:34.787Z,-0.52
2019-03-18T22:57:56.114Z,-0.49
2019-03-18T23:03:14.918Z,-0.64
2019-03-18T23:08:35.038Z,-0.78
2019-03-18T23:13:54.793Z,-0.81
2019-03-18T23:19:13.723Z,-0.84
2019-03-18T23:30:04.970Z,-1.07
2019-03-18T23:35:27.003Z,-0.98
2019-03-18T23:40:47.039Z,-0.90
2019-03-18T23:46:07.159Z,-1.04
2019-03-18T23:56:43.631Z,-1.50
